createdAt,value
2023-03-02T00:01:52.717Z,24.82
2023-03-02T00:04:41.236Z,25.32
2023-03-02T00:07:11.397Z,26.87
2023-03-02T00:09:38.746Z,28.08
2023-03-02T00:12:07.001Z,24.22
2023-03-02T00:14:33.780Z,31.33
2023-03-02T00:17:00.511Z,28.20
2023-03-02T00:19:27.593Z,30.32
2023-03-02T00:21:54.305Z,26.51
2023-03-02T00:24:21.476Z,26.69
2023-03-02T00:26:49.518Z,25.28
2023-03-02T00:29:16.390Z,27.40
2023-03-02T00:31:43.127Z,28.49
2023-03-02T00:34:10.086Z,27.85
2023-03-02T00:36:36.941Z,29.32
2023-03-02T00:39:04.831Z,29.91
2023-03-02T00:41:31.712Z,33.23
2023-03-02T00:43:58.409Z,28.66
2023-03-02T00:46:26.541Z,26.79
2023-03-02T00:48:53.658Z,24.82
2023-03-02T00:51:20.828Z,23.68
2023-03-02T00:53:47.577Z,26.45
2023-03-02T00:56:14.634Z,28.65
2023-03-02T00:58:47.099Z,24.72
2023-03-02T01:01:14.133Z,24.41
2023-03-02T01:03:46.225Z,27.40
2023-03-02T01:06:19.534Z,26.08
2023-03-02T01:08:46.897Z,25.50
2023-03-02T01:11:16.326Z,22.95
2023-03-02T01:13:43.662Z,25.10
2023-03-02T01:16:12.025Z,26.47
2023-03-02T01:18:39.538Z,25.26
2023-03-02T01:21:12.236Z,23.49
2023-03-02T01:23:39.085Z,26.09
2023-03-02T01:26:06.027Z,26.96
2023-03-02T01:28:32.804Z,26.71
2023-03-02T01:31:01.372Z,30.40
2023-03-02T01:33:28.560Z,24.51
2023-03-02T01:35:55.588Z,25.60
2023-03-02T01:38:22.433Z,27.11
2023-03-02T01:40:49.154Z,25.90
2023-03-02T01:43:16.685Z,22.38
2023-03-02T01:45:55.685Z,22.95
2023-03-02T01:48:34.076Z,21.82
2023-03-02T01:51:02.972Z,23.21
2023-03-02T01:53:32.202Z,25.18
2023-03-02T01:56:01.687Z,24.50
2023-03-02T01:58:34.449Z,23.57
2023-03-02T02:01:01.609Z,25.84
2023-03-02T02:03:31.264Z,23.15
2023-03-02T02:06:12.675Z,23.21
2023-03-02T02:08:39.907Z,23.02
2023-03-02T02:11:07.177Z,24.63
2023-03-02T02:13:33.994Z,24.00
2023-03-02T02:16:00.833Z,22.17
2023-03-02T02:18:27.622Z,25.22
2023-03-02T02:20:55.710Z,24.19
2023-03-02T02:23:27.593Z,25.23
2023-03-02T02:26:01.953Z,24.32
2023-03-02T02:28:34.440Z,26.78
2023-03-02T02:31:16.403Z,24.69
2023-03-02T02:33:47.157Z,29.27
2023-03-02T02:36:21.597Z,25.83
2023-03-02T02:38:51.956Z,27.93
2023-03-02T02:41:27.729Z,26.00
2023-03-02T02:43:55.604Z,27.45
2023-03-02T02:46:23.748Z,26.44
2023-03-02T02:48:50.905Z,26.27
2023-03-02T02:51:23.781Z,26.48
2023-03-02T02:54:00.139Z,23.94
2023-03-02T02:56:37.536Z,23.17
2023-03-02T02:59:19.660Z,26.97
2023-03-02T03:01:48.521Z,26.24
2023-03-02T03:04:20.361Z,27.22
2023-03-02T03:06:53.668Z,28.22
2023-03-02T03:09:21.751Z,24.80
2023-03-02T03:11:52.728Z,23.32
2023-03-02T03:14:25.415Z,25.34
2023-03-02T03:16:54.196Z,25.41
2023-03-02T03:19:32.368Z,26.45
2023-03-02T03:22:02.098Z,27.45
2023-03-02T03:24:34.804Z,27.17
2023-03-02T03:27:05.496Z,23.42
2023-03-02T03:29:35.763Z,25.82
2023-03-02T03:32:05.365Z,23.12
2023-03-02T03:34:33.485Z,24.12
2023-03-02T03:37:01.827Z,24.30
2023-03-02T03:39:32.286Z,27.82
2023-03-02T03:41:59.602Z,28.09
2023-03-02T03:44:26.776Z,23.73
2023-03-02T03:46:55.382Z,22.86
2023-03-02T03:49:23.077Z,23.42
2023-03-02T03:51:50.126Z,24.35
2023-03-02T03:54:16.954Z,24.04
2023-03-02T03:56:46.604Z,26.58
2023-03-02T03:59:20.332Z,26.52
2023-03-02T04:01:58.555Z,25.45
2023-03-02T04:04:32.483Z,24.84
2023-03-02T04:07:00.135Z,25.58
2023-03-02T04:09:27.213Z,27.53
2023-03-02T04:11:55.767Z,24.46
2023-03-02T04:14:24.952Z,22.69
2023-03-02T04:16:53.316Z,22.45
2023-03-02T04:19:22.359Z,25.00
2023-03-02T04:21:54.523Z,22.08
2023-03-02T04:24:23.477Z,22.69
2023-03-02T04:26:52.547Z,23.87
2023-03-02T04:29:20.616Z,23.65
2023-03-02T04:31:48.567Z,22.38
2023-03-02T04:34:16.585Z,23.75
2023-03-02T04:36:45.442Z,24.14
2023-03-02T04:39:16.300Z,22.22
2023-03-02T04:41:47.699Z,22.38
2023-03-02T04:44:15.778Z,23.55
2023-03-02T04:46:44.967Z,22.40
2023-03-02T04:49:12.828Z,20.67
2023-03-02T04:51:43.341Z,23.83
2023-03-02T04:54:20.739Z,21.98
2023-03-02T04:56:48.742Z,23.16
2023-03-02T04:59:16.757Z,25.78
2023-03-02T05:01:45.095Z,24.16
2023-03-02T05:04:12.682Z,24.46
2023-03-02T05:06:39.734Z,23.45
2023-03-02T05:09:07.797Z,23.01
2023-03-02T05:11:35.073Z,24.23
2023-03-02T05:14:04.561Z,25.02
2023-03-02T05:16:33.545Z,23.61
2023-03-02T05:19:02.181Z,21.94
2023-03-02T05:21:29.227Z,21.08
2023-03-02T05:23:56.564Z,22.09
2023-03-02T05:26:24.005Z,23.42
2023-03-02T05:28:52.968Z,24.21
2023-03-02T05:31:29.831Z,22.87
2023-03-02T05:33:57.241Z,22.78
2023-03-02T05:36:24.536Z,22.13
2023-03-02T05:38:51.655Z,23.88
2023-03-02T05:41:18.444Z,23.04
2023-03-02T05:43:45.518Z,25.22
2023-03-02T05:46:12.956Z,24.61
2023-03-02T05:48:39.693Z,22.81
2023-03-02T05:51:06.449Z,22.55
2023-03-02T05:53:33.277Z,22.63
2023-03-02T05:56:00.047Z,23.02
2023-03-02T05:58:27.134Z,22.47
2023-03-02T06:00:54.177Z,24.27
2023-03-02T06:03:21.039Z,25.33
2023-03-02T06:05:50.973Z,21.80
2023-03-02T06:08:19.683Z,23.52
2023-03-02T06:10:46.497Z,23.02
2023-03-02T06:13:13.314Z,22.78
2023-03-02T06:15:40.893Z,22.11
2023-03-02T06:18:07.602Z,21.04
2023-03-02T06:20:34.490Z,22.56
2023-03-02T06:23:01.356Z,22.39
2023-03-02T06:25:28.668Z,22.23
2023-03-02T06:27:55.374Z,23.57
2023-03-02T06:30:25.836Z,21.64
2023-03-02T06:32:52.738Z,22.24
2023-03-02T06:35:20.083Z,22.68
2023-03-02T06:37:47.056Z,22.54
2023-03-02T06:40:15.000Z,22.22
2023-03-02T06:42:42.924Z,21.41
2023-03-02T06:45:10.777Z,22.09
2023-03-02T06:47:37.973Z,22.09
2023-03-02T06:50:06.085Z,24.88
2023-03-02T06:52:33.414Z,23.73
2023-03-02T06:55:00.334Z,24.78
2023-03-02T06:57:33.829Z,26.57
2023-03-02T07:00:02.713Z,26.01
2023-03-02T07:02:30.443Z,26.33
2023-03-02T07:04:57.450Z,26.88
2023-03-02T07:07:24.260Z,24.14
2023-03-02T07:09:51.000Z,24.66
2023-03-02T07:12:17.860Z,25.20
2023-03-02T07:14:45.625Z,23.98
2023-03-02T07:17:12.549Z,24.96
2023-03-02T07:19:40.876Z,24.84
2023-03-02T07:22:07.884Z,26.10
2023-03-02T07:24:34.778Z,23.99
2023-03-02T07:27:02.009Z,23.46
2023-03-02T07:29:28.978Z,26.22
2023-03-02T07:31:59.348Z,25.57
2023-03-02T07:34:26.652Z,25.06
2023-03-02T07:36:54.229Z,27.09
2023-03-02T07:39:21.022Z,24.71
2023-03-02T07:41:47.733Z,26.18
2023-03-02T07:44:15.637Z,24.32
2023-03-02T07:46:43.012Z,22.86
2023-03-02T07:49:09.732Z,22.68
2023-03-02T07:51:36.406Z,24.64
2023-03-02T07:54:05.061Z,21.53
2023-03-02T07:56:32.195Z,22.01
2023-03-02T07:58:59.161Z,21.19
2023-03-02T08:01:25.977Z,23.89
2023-03-02T08:03:52.733Z,24.14
2023-03-02T08:06:19.955Z,22.04
2023-03-02T08:08:47.153Z,22.94
2023-03-02T08:11:18.420Z,22.04
2023-03-02T08:13:46.132Z,22.00
2023-03-02T08:16:14.749Z,24.06
2023-03-02T08:18:43.342Z,23.17
2023-03-02T08:21:19.458Z,22.03
2023-03-02T08:23:46.681Z,22.03
2023-03-02T08:26:16.462Z,23.37
2023-03-02T08:28:44.634Z,22.71
2023-03-02T08:31:12.444Z,23.14
2023-03-02T08:33:39.263Z,24.07
2023-03-02T08:36:11.144Z,24.78
2023-03-02T08:38:37.998Z,21.78
2023-03-02T08:41:07.285Z,21.42
2023-03-02T08:43:34.487Z,20.10
2023-03-02T08:46:02.239Z,22.82
2023-03-02T08:48:29.548Z,22.52
2023-03-02T08:51:03.979Z,21.25
2023-03-02T08:53:34.596Z,19.85
2023-03-02T08:56:01.701Z,21.21
2023-03-02T08:58:29.350Z,21.03
2023-03-02T09:00:56.482Z,20.40
2023-03-02T09:03:23.350Z,21.19
2023-03-02T09:05:51.084Z,21.16
2023-03-02T09:08:17.834Z,21.91
2023-03-02T09:10:44.827Z,19.72
2023-03-02T09:13:13.136Z,20.37
2023-03-02T09:15:40.204Z,21.43
2023-03-02T09:18:07.035Z,19.44
2023-03-02T09:20:34.761Z,22.58
2023-03-02T09:23:01.579Z,19.49
2023-03-02T09:25:28.328Z,20.93
2023-03-02T09:27:55.311Z,21.08
2023-03-02T09:30:22.227Z,20.38
2023-03-02T09:32:49.240Z,20.03
2023-03-02T09:35:16.706Z,19.30
2023-03-02T09:37:44.629Z,21.37
2023-03-02T09:40:23.861Z,20.14
2023-03-02T09:43:19.832Z,21.16
2023-03-02T09:45:58.968Z,20.43
2023-03-02T09:48:28.357Z,17.74
2023-03-02T09:51:09.749Z,19.55
2023-03-02T09:53:43.687Z,18.83
2023-03-02T09:56:17.328Z,20.09
2023-03-02T09:58:52.243Z,20.41
2023-03-02T10:01:32.876Z,20.28
2023-03-02T10:04:13.772Z,17.53
2023-03-02T10:06:40.709Z,18.97
2023-03-02T10:09:09.704Z,18.14
2023-03-02T10:11:55.023Z,19.64
2023-03-02T10:14:30.726Z,20.66
2023-03-02T10:17:23.708Z,20.00
2023-03-02T10:19:56.900Z,20.55
2023-03-02T10:22:38.341Z,19.49
2023-03-02T10:25:35.634Z,19.30
2023-03-02T10:28:17.016Z,17.83
2023-03-02T10:30:47.259Z,18.34
2023-03-02T10:33:17.550Z,18.51
2023-03-02T10:35:48.354Z,18.14
2023-03-02T10:38:18.607Z,17.18
2023-03-02T10:41:00.065Z,19.74
2023-03-02T10:43:45.789Z,20.57
2023-03-02T10:46:14.306Z,16.23
2023-03-02T10:48:59.805Z,17.33
2023-03-02T10:51:37.581Z,19.00
2023-03-02T10:54:07.082Z,19.52
2023-03-02T10:56:34.633Z,19.17
2023-03-02T10:59:04.490Z,18.12
2023-03-02T11:01:32.653Z,16.38
2023-03-02T11:04:02.645Z,15.91
2023-03-02T11:06:30.617Z,16.57
2023-03-02T11:09:01.233Z,16.18
2023-03-02T11:11:28.264Z,18.95
2023-03-02T11:13:57.037Z,17.44
2023-03-02T11:16:32.818Z,17.10
2023-03-02T11:19:13.175Z,16.38
2023-03-02T11:21:58.581Z,16.61
2023-03-02T11:24:41.518Z,16.52
2023-03-02T11:27:25.007Z,17.74
2023-03-02T11:30:04.301Z,18.08
2023-03-02T11:32:45.746Z,17.87
2023-03-02T11:35:22.859Z,15.09
2023-03-02T11:37:55.199Z,17.25
2023-03-02T11:40:47.214Z,17.00
2023-03-02T11:43:14.498Z,16.13
2023-03-02T11:45:46.533Z,17.07
2023-03-02T11:48:24.884Z,19.11
2023-03-02T11:51:20.860Z,15.88
2023-03-02T11:54:04.139Z,17.60
2023-03-02T11:56:35.082Z,17.92
2023-03-02T11:59:13.349Z,15.83
2023-03-02T12:01:40.477Z,19.28
2023-03-02T12:04:11.903Z,16.65
2023-03-02T12:06:42.155Z,17.74
2023-03-02T12:09:31.150Z,19.06
2023-03-02T12:12:14.964Z,15.53
2023-03-02T12:14:42.512Z,20.70
2023-03-02T12:17:20.631Z,18.84
2023-03-02T12:19:48.601Z,18.73
2023-03-02T12:22:29.507Z,20.72
2023-03-02T12:25:20.928Z,16.10
2023-03-02T12:27:51.512Z,17.35
2023-03-02T12:30:23.626Z,18.51
2023-03-02T12:33:10.733Z,15.45
2023-03-02T12:35:37.986Z,18.04
2023-03-02T12:38:37.305Z,18.25
2023-03-02T12:41:26.091Z,17.21
2023-03-02T12:44:09.748Z,18.14
2023-03-02T12:46:37.644Z,18.51
2023-03-02T12:49:08.752Z,15.87
2023-03-02T12:51:58.925Z,15.41
2023-03-02T12:54:31.217Z,15.95
2023-03-02T12:57:16.071Z,17.03
2023-03-02T12:59:44.191Z,18.51
2023-03-02T13:02:20.280Z,17.00
2023-03-02T13:04:59.557Z,16.93
2023-03-02T13:07:34.511Z,17.09
2023-03-02T13:10:07.252Z,17.01
2023-03-02T13:12:36.066Z,17.06
2023-03-02T13:15:03.522Z,15.77
2023-03-02T13:17:32.609Z,16.83
2023-03-02T13:20:01.438Z,16.81
2023-03-02T13:22:29.573Z,18.01
2023-03-02T13:24:59.121Z,17.76
2023-03-02T13:27:26.688Z,16.56
2023-03-02T13:29:55.667Z,20.07
2023-03-02T13:32:35.262Z,19.27
2023-03-02T13:35:03.637Z,17.31
2023-03-02T13:37:38.827Z,17.45
2023-03-02T13:40:30.223Z,16.62
2023-03-02T13:42:57.907Z,15.79
2023-03-02T13:45:24.737Z,18.24
2023-03-02T13:47:52.421Z,19.90
2023-03-02T13:50:21.880Z,16.04
2023-03-02T13:52:50.288Z,18.66
2023-03-02T13:55:20.298Z,19.42
2023-03-02T13:57:49.297Z,16.54
2023-03-02T14:00:22.785Z,15.73
2023-03-02T14:02:50.502Z,20.21
2023-03-02T14:05:20.811Z,22.55
2023-03-02T14:07:47.837Z,19.17
2023-03-02T14:10:17.222Z,21.75
2023-03-02T14:13:01.006Z,22.76
2023-03-02T14:15:28.122Z,19.48
2023-03-02T14:17:54.945Z,21.60
2023-03-02T14:20:21.664Z,20.67
2023-03-02T14:22:50.562Z,20.22
2023-03-02T14:25:17.986Z,20.08
2023-03-02T14:27:47.199Z,21.66
2023-03-02T14:30:19.655Z,21.43
2023-03-02T14:32:47.405Z,22.35
2023-03-02T14:35:16.751Z,21.95
2023-03-02T14:37:47.238Z,22.48
2023-03-02T14:40:33.540Z,20.37
2023-03-02T14:43:00.306Z,20.85
2023-03-02T14:45:28.834Z,20.99
2023-03-02T14:47:57.470Z,22.53
2023-03-02T14:50:24.161Z,21.82
2023-03-02T14:52:57.777Z,22.06
2023-03-02T14:55:29.988Z,21.13
2023-03-02T14:58:04.852Z,21.60
2023-03-02T15:00:32.113Z,21.87
2023-03-02T15:02:59.623Z,22.26
2023-03-02T15:05:26.461Z,22.83
2023-03-02T15:07:53.816Z,21.23
2023-03-02T15:10:22.124Z,22.63
2023-03-02T15:12:49.811Z,27.43
2023-03-02T15:15:17.268Z,24.02
2023-03-02T15:17:44.048Z,24.26
2023-03-02T15:20:15.406Z,24.33
2023-03-02T15:22:42.338Z,21.04
2023-03-02T15:25:09.487Z,22.04
2023-03-02T15:27:36.470Z,21.91
2023-03-02T15:30:03.884Z,20.11
2023-03-02T15:32:30.696Z,22.96
2023-03-02T15:34:57.710Z,25.96
2023-03-02T15:37:24.428Z,24.97
2023-03-02T15:39:56.125Z,24.16
2023-03-02T15:42:23.704Z,27.10
2023-03-02T15:44:50.567Z,25.29
2023-03-02T15:47:17.869Z,23.73
2023-03-02T15:49:45.011Z,21.64
2023-03-02T15:52:12.556Z,23.93
2023-03-02T15:54:40.018Z,22.74
2023-03-02T15:57:07.355Z,24.81
2023-03-02T15:59:34.168Z,24.82
2023-03-02T16:02:02.405Z,21.91
2023-03-02T16:04:31.018Z,22.53
2023-03-02T16:06:58.338Z,22.97
2023-03-02T16:09:26.261Z,22.71
2023-03-02T16:11:53.040Z,22.41
2023-03-02T16:14:20.559Z,24.78
2023-03-02T16:16:47.669Z,24.02
2023-03-02T16:19:18.977Z,21.39
2023-03-02T16:21:47.203Z,26.71
2023-03-02T16:24:16.172Z,23.21
2023-03-02T16:26:43.131Z,23.01
2023-03-02T16:29:11.877Z,24.80
2023-03-02T16:31:39.341Z,24.72
2023-03-02T16:34:08.889Z,26.51
2023-03-02T16:36:40.567Z,23.07
2023-03-02T16:39:08.799Z,24.08
2023-03-02T16:41:36.908Z,25.74
2023-03-02T16:44:04.244Z,24.06
2023-03-02T16:46:36.397Z,23.17
2023-03-02T16:49:04.712Z,23.44
2023-03-02T16:51:32.205Z,25.24
2023-03-02T16:53:59.117Z,24.77
2023-03-02T16:56:26.426Z,26.99
2023-03-02T16:58:53.173Z,23.57
2023-03-02T17:01:21.303Z,26.23
2023-03-02T17:03:49.964Z,23.52
2023-03-02T17:06:22.715Z,24.61
2023-03-02T17:08:51.171Z,29.19
2023-03-02T17:11:19.672Z,25.94
2023-03-02T17:13:46.798Z,26.45
2023-03-02T17:16:13.964Z,26.12
2023-03-02T17:18:41.104Z,26.47
2023-03-02T17:21:08.450Z,24.39
2023-03-02T17:23:37.222Z,27.10
2023-03-02T17:26:04.276Z,29.90
2023-03-02T17:28:31.439Z,24.96
2023-03-02T17:30:59.197Z,28.23
2023-03-02T17:33:26.293Z,27.16
2023-03-02T17:35:52.998Z,28.37
2023-03-02T17:38:20.145Z,28.30
2023-03-02T17:40:46.868Z,29.62
2023-03-02T17:43:13.645Z,26.33
2023-03-02T17:45:40.373Z,26.44
2023-03-02T17:48:07.622Z,26.26
2023-03-02T17:50:34.976Z,25.95
2023-03-02T17:53:02.989Z,25.34
2023-03-02T17:55:30.047Z,25.55
2023-03-02T17:57:56.764Z,23.22
2023-03-02T18:00:24.389Z,27.19
2023-03-02T18:02:52.197Z,25.09
2023-03-02T18:05:19.330Z,25.49
2023-03-02T18:07:46.376Z,27.12
2023-03-02T18:10:14.029Z,24.49
2023-03-02T18:12:40.843Z,28.70
2023-03-02T18:15:08.933Z,26.14
2023-03-02T18:17:35.628Z,25.55
2023-03-02T18:20:02.493Z,29.29
2023-03-02T18:22:29.347Z,28.90
2023-03-02T18:24:56.148Z,24.82
2023-03-02T18:27:23.296Z,23.27
2023-03-02T18:29:50.321Z,24.63
2023-03-02T18:32:17.410Z,27.48
2023-03-02T18:34:44.516Z,26.05
2023-03-02T18:37:11.293Z,26.02
2023-03-02T18:39:38.463Z,24.01
2023-03-02T18:42:07.244Z,26.94
2023-03-02T18:44:34.734Z,28.26
2023-03-02T18:47:02.136Z,25.50
2023-03-02T18:49:29.088Z,26.99
2023-03-02T18:51:56.854Z,26.93
2023-03-02T18:54:24.131Z,26.99
2023-03-02T18:56:51.073Z,29.62
2023-03-02T18:59:18.471Z,28.52
2023-03-02T19:01:46.281Z,27.94
2023-03-02T19:04:14.398Z,24.68
2023-03-02T19:06:42.885Z,25.03
2023-03-02T19:09:10.537Z,27.28
2023-03-02T19:11:37.686Z,24.51
2023-03-02T19:14:04.836Z,24.25
2023-03-02T19:16:32.300Z,26.90
2023-03-02T19:18:59.261Z,26.74
2023-03-02T19:21:26.093Z,27.13
2023-03-02T19:23:53.381Z,25.09
2023-03-02T19:26:20.419Z,27.18
2023-03-02T19:28:47.549Z,25.99
2023-03-02T19:31:14.993Z,29.67
2023-03-02T19:33:42.803Z,25.26
2023-03-02T19:36:10.065Z,25.84
2023-03-02T19:38:41.442Z,27.22
2023-03-02T19:41:10.556Z,25.96
2023-03-02T19:43:37.751Z,22.11
2023-03-02T19:46:05.306Z,24.10
2023-03-02T19:48:34.109Z,23.88
2023-03-02T19:51:00.961Z,23.13
2023-03-02T19:53:28.348Z,24.24
2023-03-02T19:56:00.401Z,22.17
2023-03-02T19:58:28.542Z,22.64
2023-03-02T20:00:55.344Z,22.05
2023-03-02T20:03:22.972Z,22.20
2023-03-02T20:05:50.407Z,21.72
2023-03-02T20:08:17.645Z,21.97
2023-03-02T20:10:46.805Z,25.36
2023-03-02T20:13:14.053Z,29.02
2023-03-02T20:15:44.517Z,25.09
2023-03-02T20:18:18.834Z,24.15
2023-03-02T20:20:47.174Z,25.67
2023-03-02T20:23:14.433Z,24.95
2023-03-02T20:25:41.323Z,24.65
2023-03-02T20:28:11.807Z,25.26
2023-03-02T20:30:54.696Z,26.25
2023-03-02T20:33:27.020Z,27.76
2023-03-02T20:35:55.030Z,25.21
2023-03-02T20:38:29.418Z,28.73
2023-03-02T20:40:56.647Z,25.77
2023-03-02T20:43:23.591Z,26.84
2023-03-02T20:45:50.728Z,26.42
2023-03-02T20:48:18.613Z,26.74
2023-03-02T20:50:45.467Z,27.93
2023-03-02T20:53:12.387Z,24.55
2023-03-02T20:55:39.902Z,25.49
2023-03-02T20:58:06.942Z,29.09
2023-03-02T21:00:36.020Z,28.98
2023-03-02T21:03:04.123Z,25.35
2023-03-02T21:05:32.435Z,28.04
2023-03-02T21:08:00.173Z,26.25
2023-03-02T21:10:36.648Z,26.55
2023-03-02T21:13:06.039Z,27.91
2023-03-02T21:15:33.672Z,27.50
2023-03-02T21:18:00.487Z,31.34
2023-03-02T21:20:30.742Z,28.63
2023-03-02T21:22:57.888Z,28.84
2023-03-02T21:25:25.922Z,25.15
2023-03-02T21:27:52.775Z,24.99
2023-03-02T21:30:23.813Z,28.63
2023-03-02T21:32:51.293Z,28.70
2023-03-02T21:35:20.269Z,26.85
2023-03-02T21:37:49.260Z,26.99
2023-03-02T21:40:21.462Z,28.59
2023-03-02T21:42:49.014Z,27.93
2023-03-02T21:45:16.007Z,27.51
2023-03-02T21:47:43.346Z,25.96
2023-03-02T21:50:15.429Z,24.86
2023-03-02T21:52:42.195Z,27.89
2023-03-02T21:55:13.323Z,26.38
2023-03-02T21:57:40.750Z,27.12
2023-03-02T22:00:10.111Z,26.91
2023-03-02T22:02:37.737Z,26.78
2023-03-02T22:05:04.799Z,26.47
2023-03-02T22:07:31.893Z,25.14
2023-03-02T22:09:58.952Z,27.77
2023-03-02T22:12:26.244Z,25.56
2023-03-02T22:14:59.471Z,27.63
2023-03-02T22:17:26.245Z,26.41
2023-03-02T22:19:53.045Z,24.63
2023-03-02T22:22:37.861Z,25.41
2023-03-02T22:25:14.608Z,23.91
2023-03-02T22:27:42.415Z,25.58
2023-03-02T22:30:20.099Z,26.11
2023-03-02T22:32:48.064Z,22.70
2023-03-02T22:35:23.228Z,25.21
2023-03-02T22:37:52.024Z,23.90
2023-03-02T22:40:18.743Z,23.70
2023-03-02T22:42:45.481Z,22.08
2023-03-02T22:45:14.866Z,23.32
2023-03-02T22:47:43.281Z,22.42
2023-03-02T22:50:12.975Z,22.34
2023-03-02T22:52:41.828Z,21.61
2023-03-02T22:55:30.461Z,21.34
2023-03-02T22:57:57.306Z,21.26
2023-03-02T23:00:34.889Z,21.59
2023-03-02T23:03:01.819Z,20.54
2023-03-02T23:05:34.733Z,21.58
2023-03-02T23:08:26.590Z,21.66
2023-03-02T23:10:57.870Z,21.48
2023-03-02T23:13:30.542Z,22.28
2023-03-02T23:15:57.661Z,22.81
2023-03-02T23:18:27.747Z,22.82
2023-03-02T23:20:55.406Z,21.82
2023-03-02T23:23:24.852Z,22.19
2023-03-02T23:25:51.805Z,21.59
2023-03-02T23:28:18.671Z,22.95
2023-03-02T23:30:45.482Z,21.40
2023-03-02T23:33:12.224Z,22.94
2023-03-02T23:35:40.030Z,22.83
2023-03-02T23:38:06.857Z,22.65
2023-03-02T23:40:33.913Z,21.25
2023-03-02T23:43:00.884Z,21.40
2023-03-02T23:45:27.645Z,20.69
2023-03-02T23:47:55.140Z,21.70
2023-03-02T23:50:21.897Z,21.19
2023-03-02T23:52:49.276Z,22.14
2023-03-02T23:55:16.298Z,21.08
2023-03-02T23:57:42.978Z,21.29
